Time;durP1;ratioP1;P1;durP2;ratioP2;P2;SDS_P1;SDS_P2;PMS_P1;PMS_P2;Temp;Humidity;BMP_temperature;BMP_pressure;BME280_temperature;BME280_humidity;BME280_pressure;Samples;Min_cycle;Max_cycle;Signal;HPM_P1;HPM_P2
2022/10/20 00:02:03;;;;;;;23.40;15.70;;;;;;;;;;745844;187;918911;-67
2022/10/20 00:04:29;;;;;;;31.13;15.03;;;;;;;;;;743849;186;917671;-66
2022/10/20 00:06:55;;;;;;;19.80;13.30;;;;;;;;;;747962;186;913494;-67
2022/10/20 00:09:21;;;;;;;21.93;14.67;;;;;;;;;;743690;184;918637;-67
2022/10/20 00:11:46;;;;;;;23.27;14.03;;;;;;;;;;746179;186;918769;-61
2022/10/20 00:14:12;;;;;;;18.63;13.47;;;;;;;;;;749237;187;818179;-61
2022/10/20 00:16:38;;;;;;;21.77;15.67;;;;;;;;;;740695;187;916047;-60
2022/10/20 00:19:04;;;;;;;25.03;14.97;;;;;;;;;;745625;184;816277;-60
2022/10/20 00:21:30;;;;;;;28.50;16.50;;;;;;;;;;748955;185;857123;-60
2022/10/20 00:23:56;;;;;;;30.73;18.27;;;;;;;;;;743341;185;920911;-61
2022/10/20 00:26:21;;;;;;;30.00;16.77;;;;;;;;;;746040;186;915161;-60
2022/10/20 00:28:47;;;;;;;24.97;15.90;;;;;;;;;;741845;187;919081;-66
2022/10/20 00:31:13;;;;;;;21.80;15.80;;;;;;;;;;748514;187;919115;-68
2022/10/20 00:33:39;;;;;;;25.27;15.97;;;;;;;;;;742271;185;919254;-61
2022/10/20 00:36:05;;;;;;;26.80;15.30;;;;;;;;;;740735;186;918184;-61
2022/10/20 00:38:31;;;;;;;26.60;15.30;;;;;;;;;;749405;186;918694;-60
2022/10/20 00:40:58;;;;;;;25.73;15.03;;;;;;;;;;745330;187;943386;-67
2022/10/20 00:43:22;;;;;;;25.62;15.48;;;;;;;;;;744457;187;918794;-60
2022/10/20 00:45:49;;;;;;;24.97;13.97;;;;;;;;;;748035;187;918233;-66
2022/10/20 00:48:15;;;;;;;22.80;15.18;;;;;;;;;;743486;184;913537;-60
2022/10/20 00:50:41;;;;;;;32.33;15.50;;;;;;;;;;745153;187;918248;-67
2022/10/20 00:53:07;;;;;;;22.93;15.47;;;;;;;;;;740961;186;924354;-61
2022/10/20 00:55:32;;;;;;;23.70;14.13;;;;;;;;;;746007;186;918447;-66
2022/10/20 00:57:58;;;;;;;23.03;14.40;;;;;;;;;;743599;187;921889;-59
2022/10/20 01:00:24;;;;;;;24.30;13.90;;;;;;;;;;739198;186;920929;-66
2022/10/20 01:02:50;;;;;;;33.23;15.00;;;;;;;;;;747810;186;871411;-61
2022/10/20 01:05:16;;;;;;;19.60;13.67;;;;;;;;;;742216;187;921231;-66
2022/10/20 01:07:42;;;;;;;20.60;15.30;;;;;;;;;;743257;187;922113;-60
2022/10/20 01:10:08;;;;;;;29.93;16.20;;;;;;;;;;751100;186;811761;-66
2022/10/20 01:12:34;;;;;;;23.20;15.03;;;;;;;;;;744495;184;918867;-66
2022/10/20 01:15:01;;;;;;;25.30;13.90;;;;;;;;;;746148;184;815171;-60
2022/10/20 01:17:33;;;;;;;18.73;13.60;;;;;;;;;;743684;186;918309;-66
2022/10/20 01:19:59;;;;;;;24.80;14.33;;;;;;;;;;751556;185;918042;-67
2022/10/20 01:22:31;;;;;;;27.37;16.23;;;;;;;;;;740902;187;922583;-60
2022/10/20 01:25:11;;;;;;;18.90;12.03;;;;;;;;;;744036;186;914441;-68
2022/10/20 01:27:37;;;;;;;19.50;12.70;;;;;;;;;;747052;185;918334;-68
2022/10/20 01:30:05;;;;;;;27.15;13.80;;;;;;;;;;748066;185;815917;-62
2022/10/20 01:32:31;;;;;;;24.77;13.50;;;;;;;;;;746770;186;915865;-67
2022/10/20 01:35:03;;;;;;;18.77;12.20;;;;;;;;;;731878;187;890290;-61
2022/10/20 01:37:31;;;;;;;18.80;12.10;;;;;;;;;;742466;186;919361;-67
2022/10/20 01:39:57;;;;;;;19.87;10.73;;;;;;;;;;743580;186;919440;-68
2022/10/20 01:42:23;;;;;;;13.47;9.60;;;;;;;;;;744857;187;919124;-68
2022/10/20 01:44:49;;;;;;;22.73;11.30;;;;;;;;;;739950;187;925345;-67
2022/10/20 01:47:15;;;;;;;18.00;10.93;;;;;;;;;;740562;186;919017;-62
2022/10/20 01:49:41;;;;;;;16.63;10.77;;;;;;;;;;746971;186;919271;-67
2022/10/20 01:52:06;;;;;;;21.93;13.27;;;;;;;;;;743856;184;915505;-62
2022/10/20 01:54:32;;;;;;;14.43;11.30;;;;;;;;;;741011;186;912436;-62
2022/10/20 01:57:03;;;;;;;21.97;13.30;;;;;;;;;;749306;187;910980;-62
2022/10/20 01:59:30;;;;;;;21.07;12.90;;;;;;;;;;739748;186;910557;-68
2022/10/20 02:01:59;;;;;;;20.33;12.30;;;;;;;;;;740357;185;921403;-62
2022/10/20 02:04:25;;;;;;;25.87;13.10;;;;;;;;;;738171;187;933422;-67
2022/10/20 02:06:54;;;;;;;19.80;12.30;;;;;;;;;;748719;186;870076;-68
2022/10/20 02:09:25;;;;;;;23.40;13.33;;;;;;;;;;743580;187;920732;-61
2022/10/20 02:11:52;;;;;;;31.60;16.73;;;;;;;;;;744748;184;819512;-69
2022/10/20 02:14:18;;;;;;;28.23;15.33;;;;;;;;;;744498;187;936587;-62
2022/10/20 02:16:44;;;;;;;30.47;17.30;;;;;;;;;;745045;187;922528;-62
2022/10/20 02:19:10;;;;;;;27.63;16.13;;;;;;;;;;741719;185;918820;-62
2022/10/20 02:21:36;;;;;;;33.03;17.27;;;;;;;;;;744078;186;917777;-67
2022/10/20 02:24:02;;;;;;;32.10;16.97;;;;;;;;;;749012;186;915200;-62
2022/10/20 02:26:29;;;;;;;31.50;18.67;;;;;;;;;;743380;185;919633;-63
2022/10/20 02:28:53;;;;;;;28.17;15.37;;;;;;;;;;743666;185;818014;-68
2022/10/20 02:31:19;;;;;;;30.57;17.90;;;;;;;;;;748548;185;888026;-67
2022/10/20 02:33:45;;;;;;;28.33;18.00;;;;;;;;;;746133;184;911735;-68
2022/10/20 02:36:12;;;;;;;38.30;19.17;;;;;;;;;;743565;187;911929;-62
2022/10/20 02:38:38;;;;;;;30.00;17.43;;;;;;;;;;743030;184;913055;-67
2022/10/20 02:41:03;;;;;;;32.13;18.50;;;;;;;;;;750456;187;633521;-67
2022/10/20 02:43:29;;;;;;;31.23;17.33;;;;;;;;;;742868;185;916214;-61
2022/10/20 02:45:55;;;;;;;34.03;19.20;;;;;;;;;;743683;186;918024;-67
2022/10/20 02:48:21;;;;;;;25.60;15.93;;;;;;;;;;747156;185;914639;-62
2022/10/20 02:50:47;;;;;;;32.33;16.50;;;;;;;;;;741504;185;922165;-61
2022/10/20 02:53:13;;;;;;;35.47;16.80;;;;;;;;;;741713;185;921531;-68
2022/10/20 02:55:38;;;;;;;38.30;21.70;;;;;;;;;;747090;185;919193;-61
2022/10/20 02:58:04;;;;;;;25.00;16.07;;;;;;;;;;743529;187;910295;-67
2022/10/20 03:00:30;;;;;;;19.27;13.45;;;;;;;;;;743323;185;913307;-69
2022/10/20 03:02:56;;;;;;;24.80;13.70;;;;;;;;;;742963;187;817698;-66
2022/10/20 03:05:22;;;;;;;25.93;14.80;;;;;;;;;;747501;186;873117;-60
2022/10/20 03:07:48;;;;;;;27.03;17.17;;;;;;;;;;740500;187;919471;-61
2022/10/20 03:10:14;;;;;;;27.63;15.87;;;;;;;;;;742982;186;916284;-61
2022/10/20 03:12:39;;;;;;;26.30;15.30;;;;;;;;;;748414;185;885088;-67
2022/10/20 03:15:06;;;;;;;21.50;12.10;;;;;;;;;;744996;187;1020927;-61
2022/10/20 03:17:32;;;;;;;17.00;9.40;;;;;;;;;;740973;187;1031011;-61
2022/10/20 03:19:57;;;;;;;12.77;7.93;;;;;;;;;;748676;186;919119;-61
2022/10/20 03:22:23;;;;;;;12.07;8.87;;;;;;;;;;740813;187;942916;-70
2022/10/20 03:24:49;;;;;;;13.27;8.70;;;;;;;;;;741053;187;917896;-68
2022/10/20 03:27:15;;;;;;;14.52;9.18;;;;;;;;;;744571;187;920425;-62
2022/10/20 03:29:41;;;;;;;16.87;9.20;;;;;;;;;;742298;186;919570;-60
2022/10/20 03:32:07;;;;;;;16.77;9.73;;;;;;;;;;741821;185;1019794;-68
2022/10/20 03:34:33;;;;;;;18.30;10.53;;;;;;;;;;745192;185;845954;-61
2022/10/20 03:36:58;;;;;;;19.30;11.77;;;;;;;;;;750984;187;903728;-61
2022/10/20 03:39:24;;;;;;;17.30;10.53;;;;;;;;;;745260;186;917818;-63
2022/10/20 03:41:50;;;;;;;15.60;10.27;;;;;;;;;;746627;187;817006;-69
2022/10/20 03:44:16;;;;;;;15.57;10.25;;;;;;;;;;748482;186;918933;-68
2022/10/20 03:46:42;;;;;;;14.83;10.27;;;;;;;;;;744171;187;923070;-61
2022/10/20 03:49:08;;;;;;;16.30;10.60;;;;;;;;;;744220;185;918925;-68
2022/10/20 03:51:33;;;;;;;15.05;10.35;;;;;;;;;;748130;186;918683;-64
2022/10/20 03:53:59;;;;;;;19.27;12.73;;;;;;;;;;743596;186;915786;-69
2022/10/20 03:56:25;;;;;;;17.40;10.80;;;;;;;;;;740908;187;978691;-69
2022/10/20 03:58:51;;;;;;;19.37;12.40;;;;;;;;;;741276;187;918294;-67
2022/10/20 04:01:17;;;;;;;32.00;16.80;;;;;;;;;;746717;185;915945;-62
2022/10/20 04:03:43;;;;;;;35.37;17.17;;;;;;;;;;744476;184;1011350;-62
2022/10/20 04:06:08;;;;;;;27.17;18.57;;;;;;;;;;743554;187;916355;-62
2022/10/20 04:08:34;;;;;;;29.40;17.03;;;;;;;;;;744939;186;918183;-62
2022/10/20 04:11:00;;;;;;;34.23;18.80;;;;;;;;;;741927;186;918376;-62
2022/10/20 04:13:26;;;;;;;34.30;18.60;;;;;;;;;;741312;187;918139;-69
2022/10/20 04:15:52;;;;;;;30.30;17.87;;;;;;;;;;745806;187;920928;-68
2022/10/20 04:18:18;;;;;;;33.47;19.17;;;;;;;;;;743693;186;916472;-68
2022/10/20 04:20:44;;;;;;;33.10;21.50;;;;;;;;;;741638;187;918407;-60
2022/10/20 04:23:09;;;;;;;40.13;23.27;;;;;;;;;;741961;185;921463;-67
2022/10/20 04:25:35;;;;;;;45.87;27.30;;;;;;;;;;742656;185;922155;-69
2022/10/20 04:28:01;;;;;;;50.50;29.07;;;;;;;;;;742685;184;818799;-61
2022/10/20 04:30:27;;;;;;;48.67;26.40;;;;;;;;;;741601;186;919617;-61
2022/10/20 04:32:53;;;;;;;44.40;25.43;;;;;;;;;;749386;186;723292;-68
2022/10/20 04:35:19;;;;;;;48.67;26.27;;;;;;;;;;743672;185;918590;-60
2022/10/20 04:37:44;;;;;;;52.13;28.00;;;;;;;;;;738747;186;914095;-61
2022/10/20 04:40:11;;;;;;;51.03;31.37;;;;;;;;;;746788;186;914292;-63
2022/10/20 04:42:37;;;;;;;48.67;27.97;;;;;;;;;;745659;184;813038;-67
2022/10/20 04:45:02;;;;;;;45.53;27.53;;;;;;;;;;747668;184;860311;-61
2022/10/20 04:47:31;;;;;;;43.63;26.10;;;;;;;;;;746483;186;922134;-61
2022/10/20 04:49:56;;;;;;;53.53;30.50;;;;;;;;;;753082;185;914389;-61
2022/10/20 04:52:22;;;;;;;49.33;26.97;;;;;;;;;;751875;185;634659;-61
2022/10/20 04:54:48;;;;;;;57.43;30.87;;;;;;;;;;746185;187;824201;-67
2022/10/20 04:57:14;;;;;;;60.70;30.13;;;;;;;;;;748894;187;919091;-67
2022/10/20 04:59:40;;;;;;;50.83;29.87;;;;;;;;;;746098;186;916112;-61
2022/10/20 05:02:07;;;;;;;48.53;27.03;;;;;;;;;;743263;187;917228;-67
2022/10/20 05:04:32;;;;;;;51.43;30.73;;;;;;;;;;744080;186;643353;-67
2022/10/20 05:06:58;;;;;;;51.40;28.63;;;;;;;;;;744520;187;847709;-67
2022/10/20 05:09:24;;;;;;;46.87;27.20;;;;;;;;;;745423;187;825414;-69
2022/10/20 05:11:49;;;;;;;52.63;28.70;;;;;;;;;;743408;186;920070;-67
2022/10/20 05:14:15;;;;;;;54.90;25.93;;;;;;;;;;751489;185;920520;-61
2022/10/20 05:16:41;;;;;;;52.47;30.40;;;;;;;;;;747609;186;817228;-61
2022/10/20 05:19:07;;;;;;;61.37;32.00;;;;;;;;;;744429;187;919108;-66
2022/10/20 05:21:33;;;;;;;51.80;28.73;;;;;;;;;;746976;187;816784;-67
2022/10/20 05:23:59;;;;;;;47.37;27.00;;;;;;;;;;741018;187;816649;-67
2022/10/20 05:26:25;;;;;;;48.87;28.10;;;;;;;;;;738485;187;876388;-68
2022/10/20 05:28:50;;;;;;;41.20;24.10;;;;;;;;;;746526;187;916071;-61
2022/10/20 05:31:16;;;;;;;48.47;26.53;;;;;;;;;;745653;187;918932;-68
2022/10/20 05:33:43;;;;;;;46.37;24.73;;;;;;;;;;746197;184;902829;-68
2022/10/20 05:36:09;;;;;;;49.03;26.35;;;;;;;;;;744550;187;918432;-66
2022/10/20 05:38:35;;;;;;;50.07;27.33;;;;;;;;;;748304;184;919240;-69
2022/10/20 05:41:06;;;;;;;47.07;28.17;;;;;;;;;;744019;184;816964;-62
2022/10/20 05:43:32;;;;;;;40.10;23.83;;;;;;;;;;742427;186;918925;-61
2022/10/20 05:45:58;;;;;;;41.30;23.50;;;;;;;;;;745286;186;909745;-67
2022/10/20 05:48:23;;;;;;;37.70;24.17;;;;;;;;;;741841;184;918599;-68
2022/10/20 05:50:49;;;;;;;34.78;21.15;;;;;;;;;;744335;185;914565;-62
2022/10/20 05:53:15;;;;;;;43.63;23.83;;;;;;;;;;748155;186;873352;-61
2022/10/20 05:55:41;;;;;;;45.07;24.83;;;;;;;;;;745363;186;918245;-68
2022/10/20 05:58:07;;;;;;;38.43;23.40;;;;;;;;;;745697;186;918906;-61
2022/10/20 06:00:40;;;;;;;38.40;22.07;;;;;;;;;;743021;186;919117;-62
2022/10/20 06:02:59;;;;;;;42.83;24.47;;;;;;;;;;747710;186;919012;-70
2022/10/20 06:05:25;;;;;;;37.83;23.70;;;;;;;;;;744938;184;927815;-60
2022/10/20 06:07:51;;;;;;;50.93;26.00;;;;;;;;;;742759;186;918440;-68
2022/10/20 06:10:16;;;;;;;44.93;24.73;;;;;;;;;;747070;187;917965;-69
2022/10/20 06:12:42;;;;;;;46.13;27.02;;;;;;;;;;741913;187;918480;-61
2022/10/20 06:15:08;;;;;;;47.17;25.80;;;;;;;;;;740992;187;920803;-61
2022/10/20 06:17:34;;;;;;;48.40;25.33;;;;;;;;;;749008;186;918493;-67
2022/10/20 06:20:00;;;;;;;50.77;26.47;;;;;;;;;;746343;186;920845;-61
2022/10/20 06:22:26;;;;;;;55.90;24.80;;;;;;;;;;738782;186;918533;-62
2022/10/20 06:24:52;;;;;;;35.53;21.80;;;;;;;;;;743473;186;918145;-61
2022/10/20 06:27:17;;;;;;;54.20;27.90;;;;;;;;;;749294;187;918803;-62
2022/10/20 06:29:43;;;;;;;48.03;25.10;;;;;;;;;;742664;185;913044;-62
2022/10/20 06:32:09;;;;;;;47.23;26.20;;;;;;;;;;743164;187;919174;-67
2022/10/20 06:34:35;;;;;;;48.07;25.77;;;;;;;;;;747997;187;916381;-68
2022/10/20 06:37:01;;;;;;;52.83;28.00;;;;;;;;;;743764;187;922946;-61
2022/10/20 06:39:27;;;;;;;47.00;26.10;;;;;;;;;;746994;187;915142;-60
2022/10/20 06:41:53;;;;;;;53.50;25.83;;;;;;;;;;748294;187;917767;-61
2022/10/20 06:44:18;;;;;;;51.70;24.60;;;;;;;;;;745110;187;918507;-61
2022/10/20 06:46:44;;;;;;;50.07;26.73;;;;;;;;;;743133;186;915809;-60
2022/10/20 06:49:10;;;;;;;52.93;25.93;;;;;;;;;;742353;186;915568;-61
2022/10/20 06:51:36;;;;;;;59.87;25.30;;;;;;;;;;746025;186;816049;-61
2022/10/20 06:54:02;;;;;;;49.53;25.67;;;;;;;;;;743534;187;918636;-61
2022/10/20 06:56:28;;;;;;;53.33;27.00;;;;;;;;;;743118;186;904617;-68
2022/10/20 06:58:54;;;;;;;49.33;25.70;;;;;;;;;;745812;186;914824;-62
2022/10/20 07:01:19;;;;;;;36.97;17.93;;;;;;;;;;741047;187;920988;-62
2022/10/20 07:03:45;;;;;;;46.43;23.63;;;;;;;;;;740432;185;921390;-61
2022/10/20 07:06:13;;;;;;;51.63;23.43;;;;;;;;;;749677;186;815863;-67
2022/10/20 07:08:39;;;;;;;49.03;20.70;;;;;;;;;;749564;185;811974;-61
2022/10/20 07:11:05;;;;;;;42.67;21.47;;;;;;;;;;745568;187;918227;-68
2022/10/20 07:13:31;;;;;;;37.37;20.33;;;;;;;;;;744812;186;919494;-62
2022/10/20 07:15:56;;;;;;;54.00;26.70;;;;;;;;;;746128;186;816899;-68
2022/10/20 07:18:22;;;;;;;40.93;22.57;;;;;;;;;;742727;184;918592;-60
2022/10/20 07:20:48;;;;;;;42.40;21.30;;;;;;;;;;746282;186;922175;-61
2022/10/20 07:23:14;;;;;;;47.57;23.00;;;;;;;;;;750322;184;918276;-62
2022/10/20 07:25:40;;;;;;;47.23;24.63;;;;;;;;;;744820;187;913994;-61
2022/10/20 07:28:06;;;;;;;47.67;25.60;;;;;;;;;;746742;186;803347;-61
2022/10/20 07:30:31;;;;;;;47.53;24.07;;;;;;;;;;748320;187;918193;-61
2022/10/20 07:32:57;;;;;;;44.47;23.37;;;;;;;;;;742967;186;918371;-68
2022/10/20 07:35:23;;;;;;;50.43;24.37;;;;;;;;;;741470;186;923026;-69
2022/10/20 07:37:49;;;;;;;38.30;21.00;;;;;;;;;;748099;186;820625;-69
2022/10/20 07:40:15;;;;;;;41.63;23.07;;;;;;;;;;741496;187;919595;-68
2022/10/20 07:42:41;;;;;;;41.40;22.90;;;;;;;;;;740842;185;919484;-68
2022/10/20 07:45:07;;;;;;;44.90;22.25;;;;;;;;;;740887;185;919538;-61
2022/10/20 07:47:33;;;;;;;37.93;18.47;;;;;;;;;;749331;187;918369;-68
2022/10/20 07:49:59;;;;;;;43.13;20.53;;;;;;;;;;746338;186;918275;-68
2022/10/20 07:52:25;;;;;;;39.42;19.52;;;;;;;;;;742755;186;915241;-60
2022/10/20 07:54:50;;;;;;;40.97;21.40;;;;;;;;;;746341;187;917791;-66
2022/10/20 07:57:16;;;;;;;44.27;22.50;;;;;;;;;;742265;187;919152;-68
2022/10/20 07:59:42;;;;;;;41.03;21.40;;;;;;;;;;740071;187;917863;-68
2022/10/20 08:02:08;;;;;;;43.70;23.10;;;;;;;;;;744236;186;917600;-60
2022/10/20 08:04:34;;;;;;;41.97;21.70;;;;;;;;;;741017;187;918387;-69
2022/10/20 08:07:00;;;;;;;25.33;14.27;;;;;;;;;;740074;187;918212;-69
2022/10/20 08:09:25;;;;;;;39.60;21.30;;;;;;;;;;741883;187;892476;-68
2022/10/20 08:11:51;;;;;;;37.30;19.67;;;;;;;;;;744685;188;918416;-69
2022/10/20 08:14:17;;;;;;;39.37;20.70;;;;;;;;;;739462;188;912980;-69
2022/10/20 08:16:43;;;;;;;33.20;18.43;;;;;;;;;;740736;187;917985;-68
2022/10/20 08:19:09;;;;;;;39.90;22.30;;;;;;;;;;748193;186;921390;-69
2022/10/20 08:21:35;;;;;;;45.97;20.67;;;;;;;;;;742896;186;922481;-69
2022/10/20 08:24:01;;;;;;;38.85;20.27;;;;;;;;;;742303;185;1021385;-70
2022/10/20 08:26:26;;;;;;;45.00;21.67;;;;;;;;;;748512;186;920178;-68
2022/10/20 08:28:52;;;;;;;40.63;20.10;;;;;;;;;;744944;187;857558;-68
2022/10/20 08:31:18;;;;;;;39.20;20.07;;;;;;;;;;743427;186;918971;-68
2022/10/20 08:33:44;;;;;;;41.63;17.67;;;;;;;;;;746949;186;817931;-66
2022/10/20 08:36:10;;;;;;;40.80;21.23;;;;;;;;;;745931;187;824043;-60
2022/10/20 08:38:36;;;;;;;41.60;23.93;;;;;;;;;;740047;186;919023;-61
2022/10/20 08:41:02;;;;;;;27.20;14.82;;;;;;;;;;741420;186;920596;-61
2022/10/20 08:43:28;;;;;;;40.50;20.50;;;;;;;;;;750979;186;816251;-61
2022/10/20 08:45:54;;;;;;;38.50;22.77;;;;;;;;;;742985;186;919199;-62
2022/10/20 08:48:21;;;;;;;42.67;22.07;;;;;;;;;;742200;187;915239;-62
2022/10/20 08:50:47;;;;;;;36.73;19.37;;;;;;;;;;748532;185;918552;-61
2022/10/20 08:53:13;;;;;;;35.17;17.93;;;;;;;;;;743851;187;918359;-61
2022/10/20 08:55:39;;;;;;;49.43;26.67;;;;;;;;;;743035;187;919247;-62
2022/10/20 08:58:05;;;;;;;47.00;25.40;;;;;;;;;;742671;187;925608;-62
2022/10/20 09:00:31;;;;;;;46.43;24.70;;;;;;;;;;750433;184;918460;-61
2022/10/20 09:02:56;;;;;;;46.53;25.33;;;;;;;;;;743443;186;819316;-70
2022/10/20 09:05:22;;;;;;;35.13;21.60;;;;;;;;;;742018;185;918284;-69
2022/10/20 09:07:50;;;;;;;47.63;24.07;;;;;;;;;;745562;186;925818;-72
2022/10/20 09:10:30;;;;;;;45.43;23.93;;;;;;;;;;742816;187;815978;-71
2022/10/20 09:12:56;;;;;;;38.05;21.20;;;;;;;;;;740004;186;917524;-62
2022/10/20 09:15:22;;;;;;;35.50;16.07;;;;;;;;;;741693;187;816509;-61
2022/10/20 09:17:49;;;;;;;41.30;20.07;;;;;;;;;;748264;186;918793;-61
2022/10/20 09:20:14;;;;;;;32.47;19.00;;;;;;;;;;748838;187;626440;-69
2022/10/20 09:22:40;;;;;;;36.83;17.73;;;;;;;;;;747594;187;627311;-68
2022/10/20 09:25:06;;;;;;;38.43;17.90;;;;;;;;;;747836;187;815624;-70
2022/10/20 09:27:33;;;;;;;37.20;18.30;;;;;;;;;;744645;186;814849;-71
2022/10/20 09:29:58;;;;;;;38.33;21.90;;;;;;;;;;743623;186;916731;-62
2022/10/20 09:32:39;;;;;;;37.87;22.40;;;;;;;;;;742565;186;918517;-70
2022/10/20 09:35:22;;;;;;;37.10;16.90;;;;;;;;;;744813;186;916405;-68
2022/10/20 09:37:54;;;;;;;41.07;20.33;;;;;;;;;;741179;187;620263;-62
2022/10/20 09:40:20;;;;;;;36.77;19.90;;;;;;;;;;750273;186;623317;-70
2022/10/20 09:42:50;;;;;;;35.67;16.10;;;;;;;;;;745439;187;914956;-71
2022/10/20 09:45:20;;;;;;;31.90;16.75;;;;;;;;;;742624;187;929029;-72
2022/10/20 09:47:45;;;;;;;33.97;20.00;;;;;;;;;;747048;187;629264;-62
2022/10/20 09:50:11;;;;;;;36.20;18.20;;;;;;;;;;752638;184;629685;-62
2022/10/20 09:52:46;;;;;;;35.00;19.33;;;;;;;;;;747565;186;627962;-70
2022/10/20 09:55:02;;;;;;;58.17;29.17;;;;;;;;;;746797;187;625750;-73
2022/10/20 09:57:28;;;;;;;51.37;31.03;;;;;;;;;;752286;186;919409;-70
2022/10/20 09:59:54;;;;;;;27.83;15.43;;;;;;;;;;742515;187;924511;-70
2022/10/20 10:02:28;;;;;;;35.93;19.00;;;;;;;;;;742562;185;920000;-71
2022/10/20 10:04:54;;;;;;;35.33;18.00;;;;;;;;;;740235;185;915383;-72
2022/10/20 10:07:22;;;;;;;24.05;14.73;;;;;;;;;;750493;185;819316;-61
2022/10/20 10:09:50;;;;;;;23.93;15.87;;;;;;;;;;743927;187;915843;-62
2022/10/20 10:12:16;;;;;;;28.23;18.10;;;;;;;;;;740433;188;914504;-71
2022/10/20 10:14:48;;;;;;;23.52;15.43;;;;;;;;;;747984;186;914646;-62
2022/10/20 10:17:20;;;;;;;30.23;17.50;;;;;;;;;;747188;187;813607;-62
2022/10/20 10:19:46;;;;;;;25.20;17.30;;;;;;;;;;741355;186;915643;-71
2022/10/20 10:22:12;;;;;;;29.58;16.15;;;;;;;;;;745704;184;911445;-62
2022/10/20 10:24:46;;;;;;;31.80;20.20;;;;;;;;;;744190;185;916328;-61
2022/10/20 10:27:18;;;;;;;17.03;9.83;;;;;;;;;;743591;185;917226;-62
2022/10/20 10:29:43;;;;;;;26.87;15.73;;;;;;;;;;743876;186;914049;-61
2022/10/20 10:32:12;;;;;;;24.30;15.57;;;;;;;;;;743291;187;915729;-61
2022/10/20 10:34:42;;;;;;;26.30;15.37;;;;;;;;;;742100;187;915269;-70
2022/10/20 10:37:07;;;;;;;23.97;15.60;;;;;;;;;;749549;184;913513;-71
2022/10/20 10:39:33;;;;;;;25.03;14.40;;;;;;;;;;744938;187;919325;-71
2022/10/20 10:42:15;;;;;;;24.77;15.57;;;;;;;;;;745601;184;916481;-70
2022/10/20 10:44:44;;;;;;;24.17;14.20;;;;;;;;;;739744;185;918732;-62
2022/10/20 10:47:25;;;;;;;26.83;16.90;;;;;;;;;;743486;184;917884;-61
2022/10/20 10:49:52;;;;;;;25.90;15.40;;;;;;;;;;753069;185;816413;-62
2022/10/20 10:52:21;;;;;;;24.90;14.77;;;;;;;;;;748610;186;917798;-62
2022/10/20 10:55:02;;;;;;;26.00;15.70;;;;;;;;;;741732;186;916742;-69
2022/10/20 10:57:29;;;;;;;30.00;16.77;;;;;;;;;;743388;184;918856;-60
2022/10/20 10:59:55;;;;;;;24.90;15.07;;;;;;;;;;745455;185;919140;-68
2022/10/20 11:02:41;;;;;;;24.10;14.10;;;;;;;;;;744060;187;914980;-71
2022/10/20 11:05:13;;;;;;;23.07;14.80;;;;;;;;;;746268;185;918480;-69
2022/10/20 11:07:40;;;;;;;26.70;17.90;;;;;;;;;;750195;184;919237;-70
2022/10/20 11:10:09;;;;;;;26.67;15.63;;;;;;;;;;742255;187;919078;-72
2022/10/20 11:12:49;;;;;;;27.20;16.10;;;;;;;;;;739000;186;1014807;-73
2022/10/20 11:15:15;;;;;;;23.37;14.60;;;;;;;;;;743315;187;916410;-70
2022/10/20 11:18:02;;;;;;;25.17;15.87;;;;;;;;;;747105;187;819388;-71
2022/10/20 11:20:38;;;;;;;25.60;14.87;;;;;;;;;;750447;187;921507;-62
2022/10/20 11:23:04;;;;;;;25.50;15.60;;;;;;;;;;755136;187;921314;-71
2022/10/20 11:25:32;;;;;;;22.60;13.40;;;;;;;;;;742654;187;817951;-70
2022/10/20 11:27:58;;;;;;;23.07;14.30;;;;;;;;;;744562;184;912754;-61
2022/10/20 11:30:26;;;;;;;25.17;13.40;;;;;;;;;;748860;186;817294;-70
2022/10/20 11:32:51;;;;;;;21.83;13.60;;;;;;;;;;745207;185;820973;-70
2022/10/20 11:35:21;;;;;;;21.10;14.20;;;;;;;;;;742738;187;918192;-61
2022/10/20 11:37:47;;;;;;;19.60;13.87;;;;;;;;;;741515;187;816239;-61
2022/10/20 11:40:13;;;;;;;19.90;13.23;;;;;;;;;;745310;186;918440;-60
2022/10/20 11:42:41;;;;;;;21.80;13.87;;;;;;;;;;744170;186;817139;-60
2022/10/20 11:45:13;;;;;;;22.03;12.40;;;;;;;;;;742613;187;820100;-61
2022/10/20 11:47:38;;;;;;;20.00;12.53;;;;;;;;;;740082;187;918894;-61
2022/10/20 11:50:06;;;;;;;21.13;12.00;;;;;;;;;;746440;186;918772;-60
2022/10/20 11:52:49;;;;;;;19.70;12.67;;;;;;;;;;746478;185;914253;-69
2022/10/20 11:55:18;;;;;;;18.73;12.07;;;;;;;;;;740985;187;918335;-61
2022/10/20 11:57:54;;;;;;;19.93;12.60;;;;;;;;;;744622;185;811504;-71
2022/10/20 12:00:26;;;;;;;20.30;12.88;;;;;;;;;;742250;187;923199;-61
2022/10/20 12:02:53;;;;;;;19.43;13.27;;;;;;;;;;747849;186;918403;-61
2022/10/20 12:05:21;;;;;;;18.57;13.43;;;;;;;;;;750766;185;917395;-61
2022/10/20 12:07:53;;;;;;;19.43;12.07;;;;;;;;;;737928;185;918054;-61
2022/10/20 12:10:23;;;;;;;19.93;13.07;;;;;;;;;;741871;187;919177;-61
2022/10/20 12:12:50;;;;;;;19.17;11.77;;;;;;;;;;741644;187;919383;-61
2022/10/20 12:15:17;;;;;;;20.10;12.70;;;;;;;;;;742197;186;921395;-62
2022/10/20 12:17:43;;;;;;;25.23;11.93;;;;;;;;;;744524;186;918473;-61
2022/10/20 12:20:11;;;;;;;19.50;12.20;;;;;;;;;;746116;187;921393;-61
2022/10/20 12:22:37;;;;;;;20.03;12.73;;;;;;;;;;746346;187;923566;-60
2022/10/20 12:25:18;;;;;;;16.73;12.00;;;;;;;;;;741728;185;923110;-61
2022/10/20 12:27:44;;;;;;;18.08;11.88;;;;;;;;;;741685;186;919091;-60
2022/10/20 12:30:15;;;;;;;19.00;11.37;;;;;;;;;;742885;187;839394;-68
2022/10/20 12:32:47;;;;;;;20.33;13.10;;;;;;;;;;745101;186;815466;-60
2022/10/20 12:35:28;;;;;;;23.80;10.90;;;;;;;;;;747766;185;918941;-60
2022/10/20 12:37:57;;;;;;;17.10;10.87;;;;;;;;;;750607;187;914577;-59
2022/10/20 12:40:24;;;;;;;15.70;10.47;;;;;;;;;;743216;187;815655;-69
2022/10/20 12:42:49;;;;;;;19.30;9.17;;;;;;;;;;741720;186;919035;-68
2022/10/20 12:45:32;;;;;;;17.40;10.05;;;;;;;;;;744348;186;918300;-68
2022/10/20 12:47:58;;;;;;;15.30;10.30;;;;;;;;;;741545;185;916856;-59
2022/10/20 12:50:30;;;;;;;14.70;9.23;;;;;;;;;;744895;185;916875;-68
2022/10/20 12:52:56;;;;;;;14.70;10.17;;;;;;;;;;736908;186;918155;-67
2022/10/20 12:55:22;;;;;;;17.08;10.15;;;;;;;;;;741294;187;919075;-67
2022/10/20 12:57:47;;;;;;;17.00;10.50;;;;;;;;;;746083;186;915832;-60
2022/10/20 13:00:33;;;;;;;17.37;9.37;;;;;;;;;;743420;187;919339;-60
2022/10/20 13:02:59;;;;;;;18.40;10.80;;;;;;;;;;741108;187;921203;-58
2022/10/20 13:05:40;;;;;;;15.63;9.40;;;;;;;;;;744565;186;921237;-68
2022/10/20 13:08:11;;;;;;;14.40;9.83;;;;;;;;;;746381;186;917469;-60
2022/10/20 13:10:37;;;;;;;13.23;9.33;;;;;;;;;;746753;184;832146;-67
2022/10/20 13:13:18;;;;;;;17.80;9.60;;;;;;;;;;748214;184;848497;-68
2022/10/20 13:15:46;;;;;;;15.97;9.00;;;;;;;;;;749913;186;909127;-68
2022/10/20 13:18:27;;;;;;;14.37;9.07;;;;;;;;;;743228;185;809677;-60
2022/10/20 13:20:57;;;;;;;12.80;9.37;;;;;;;;;;742644;186;825644;-60
2022/10/20 13:23:28;;;;;;;11.83;8.33;;;;;;;;;;742260;186;920599;-61
2022/10/20 13:25:54;;;;;;;18.13;9.50;;;;;;;;;;741160;186;939659;-61
2022/10/20 13:28:20;;;;;;;15.10;9.90;;;;;;;;;;747915;186;817547;-69
2022/10/20 13:30:47;;;;;;;13.10;8.17;;;;;;;;;;742498;186;884166;-61
2022/10/20 13:33:15;;;;;;;15.57;10.03;;;;;;;;;;743784;185;811368;-68
2022/10/20 13:35:41;;;;;;;17.80;8.87;;;;;;;;;;746533;185;851114;-61
2022/10/20 13:38:07;;;;;;;18.83;10.93;;;;;;;;;;740495;186;811246;-60
2022/10/20 13:40:37;;;;;;;18.00;10.87;;;;;;;;;;741808;187;812552;-61
2022/10/20 13:43:17;;;;;;;15.23;9.53;;;;;;;;;;739845;186;916358;-68
2022/10/20 13:46:01;;;;;;;22.40;11.07;;;;;;;;;;738711;185;922231;-68
2022/10/20 13:48:29;;;;;;;21.50;12.30;;;;;;;;;;740973;187;934001;-69
2022/10/20 13:50:58;;;;;;;18.07;11.53;;;;;;;;;;747102;186;915127;-68
2022/10/20 13:53:24;;;;;;;22.87;11.13;;;;;;;;;;746726;186;715721;-61
2022/10/20 13:55:52;;;;;;;21.93;12.40;;;;;;;;;;745085;185;862409;-68
2022/10/20 13:58:18;;;;;;;18.13;11.27;;;;;;;;;;741859;187;819198;-61
2022/10/20 14:00:43;;;;;;;20.67;11.70;;;;;;;;;;744505;188;716567;-61
2022/10/20 14:03:13;;;;;;;20.07;11.37;;;;;;;;;;737946;186;820110;-61
2022/10/20 14:05:40;;;;;;;25.63;12.43;;;;;;;;;;742177;186;799718;-61
2022/10/20 14:08:07;;;;;;;19.60;11.40;;;;;;;;;;746988;184;811463;-67